Weather History for Rogers, AR

Change the Weather History Date:

Monday, December 31, 2012

  Actual Average Record
Temperature  
Mean Temperature 35 °F -  
Max Temperature 37 °F 43 °F 69 °F (2004)
Min Temperature 33 °F 27 °F 12 °F (2001)
Degree Days  
Heating Degree Days 30    
Moisture  
Dew Point 34 °F    
Average Humidity 94    
Maximum Humidity 100    
Minimum Humidity 85    
Precipitation  
Precipitation 0.59 in - - ()
Sea Level Pressure  
Sea Level Pressure 30.10 in    
Wind  
Wind Speed 7 mph (SE)    
Max Wind Speed 10 mph    
Max Gust Speed -    
Visibility 4 miles    
Events Fog , Rain , Snow    
Averages and records for this station are not official NWS values.
T = Trace of Precipitation, MM = Missing Value Source: NWS Daily Summary

Daily Weather History Graph

Daily Weather History Graph

Search for Another Location

Airport:

Trip Planner

Search our weather history database for the weather conditions in past years. The results will help you decide how hot, cold, wet, or windy it might be!

Date:

Astronomy

Dec. 31, 2012 Rise Set
Actual Time 7:27 AM CST 5:11 PM CST
Civil Twilight 6:59 AM CST 5:40 PM CST
Nautical Twilight 6:27 AM CST 6:12 PM CST
Astronomical Twilight 5:55 AM CST 6:43 PM CST
Moon 8:36 PM CST (12/31) 9:15 AM CST (12/31)
Length of Visible Light 10h 41m
Length of Day
9h 43m
Waning Gibbous, 90% of the Moon is Illuminated
Dec 31
Waning Gibbous
Jan 4
Last Quarter
Jan 11
New
Jan 18
First Quarter
Jan 26
Full

Hourly Weather History & Observations

Time (CST) Temp. Windchill Dew Point Humidity Pressure Visibility Wind Dir Wind Speed Gust Speed Precip Events Conditions
1:57 AM 34.0 °F 26.6 °F 30.0 °F 85% 30.24 in 7.0 mi South 9.2 mph - 0.04 in   Overcast
2:14 AM 33.8 °F 25.8 °F 30.2 °F 87% 30.21 in 5.0 mi South 10.4 mph - 0.04 in Snow Light Snow
2:54 AM 33.8 °F 27.7 °F 30.2 °F 87% 30.20 in 6.0 mi SE 6.9 mph - 0.09 in Rain Light Freezing Rain
3:00 AM 33.8 °F 28.6 °F 30.2 °F 87% 30.20 in 6.0 mi SSE 5.8 mph - 0.01 in Rain Light Freezing Rain
3:05 AM 33.8 °F 28.6 °F 30.2 °F 87% 30.19 in 5.0 mi SE 5.8 mph - 0.02 in Snow Light Snow
3:46 AM 33.8 °F 29.6 °F 30.2 °F 87% 30.18 in 6.0 mi South 4.6 mph - 0.06 in Rain Light Freezing Rain
3:50 AM 33.8 °F 28.6 °F 30.2 °F 87% 30.19 in 7.0 mi South 5.8 mph - 0.07 in Rain Light Freezing Rain
4:15 AM 33.8 °F 29.6 °F 32.0 °F 93% 30.19 in 6.0 mi South 4.6 mph - 0.09 in Rain Light Rain
4:20 AM 33.8 °F 30.8 °F 32.0 °F 93% 30.19 in 6.0 mi South 3.5 mph - 0.10 in Rain Light Freezing Rain
4:32 AM 33.8 °F 29.6 °F 32.0 °F 93% 30.18 in 6.0 mi South 4.6 mph - 0.11 in Rain Light Freezing Rain
4:52 AM 33.8 °F 27.7 °F 32.0 °F 93% 30.17 in 7.0 mi SSW 6.9 mph - 0.14 in Rain Light Freezing Rain
4:57 AM 33.1 °F 26.1 °F 32.0 °F 96% 30.21 in 6.0 mi SSW 8.1 mph - 0.15 in Rain Light Freezing Rain
5:07 AM 33.8 °F 29.6 °F 32.0 °F 93% 30.17 in 7.0 mi SSW 4.6 mph - 0.01 in Snow Light Snow
5:39 AM 33.8 °F 28.6 °F 32.0 °F 93% 30.17 in 7.0 mi SE 5.8 mph - 0.06 in Rain Light Freezing Rain
5:43 AM 33.8 °F 29.6 °F 32.0 °F 93% 30.16 in 6.0 mi SE 4.6 mph - 0.06 in Rain Light Freezing Rain
5:46 AM 33.8 °F 29.6 °F 32.0 °F 93% 30.17 in 5.0 mi SE 4.6 mph - 0.06 in Rain Light Freezing Rain
5:51 AM 33.8 °F 29.6 °F 32.0 °F 93% 30.16 in 4.0 mi SE 4.6 mph - 0.07 in Rain Light Freezing Rain
5:57 AM 33.8 °F 28.6 °F 32.0 °F 93% 30.16 in 4.0 mi SSE 5.8 mph - 0.08 in Rain Light Freezing Rain
6:05 AM 33.8 °F 27.7 °F 32.0 °F 93% 30.17 in 4.0 mi South 6.9 mph - 0.01 in Snow Light Snow
6:15 AM 33.8 °F 27.7 °F 32.0 °F 93% 30.17 in 6.0 mi South 6.9 mph - 0.02 in Rain Light Freezing Rain
6:48 AM 33.8 °F 28.6 °F 32.0 °F 93% 30.16 in 6.0 mi SE 5.8 mph - 0.05 in Rain Light Freezing Rain
6:57 AM 34.0 °F 28.8 °F 32.0 °F 92% 30.17 in 6.0 mi SE 5.8 mph - 0.06 in Rain Light Freezing Rain
7:16 AM 33.8 °F 29.6 °F 32.0 °F 93% 30.14 in 6.0 mi SE 4.6 mph - 0.01 in Rain Light Rain
7:20 AM 33.8 °F 27.7 °F 32.0 °F 93% 30.13 in 6.0 mi ESE 6.9 mph - 0.02 in Rain Light Freezing Rain
7:48 AM 33.8 °F 28.6 °F 32.0 °F 93% 30.13 in 5.0 mi SE 5.8 mph - 0.03 in Rain Light Rain
7:57 AM 34.0 °F 28.8 °F 32.0 °F 92% 30.16 in 5.0 mi SE 5.8 mph - 0.04 in Rain Light Freezing Rain
8:26 AM 33.8 °F 27.7 °F 32.0 °F 93% 30.13 in 5.0 mi SE 6.9 mph - 0.02 in Rain Light Freezing Rain
8:35 AM 33.8 °F 27.0 °F 32.0 °F 93% 30.14 in 4.0 mi SE 8.1 mph - 0.02 in Rain Light Freezing Rain
8:40 AM 33.8 °F 26.4 °F 32.0 °F 93% 30.14 in 4.0 mi SSE 9.2 mph - 0.03 in Rain Light Freezing Rain
8:43 AM 33.8 °F 26.4 °F 32.0 °F 93% 30.13 in 4.0 mi SE 9.2 mph - 0.03 in Rain Light Freezing Rain
8:57 AM 33.8 °F 28.6 °F 33.8 °F 100% 30.13 in 4.0 mi ESE 5.8 mph - 0.06 in Rain Light Freezing Rain
9:12 AM 33.8 °F 25.8 °F 33.8 °F 100% 30.13 in 3.0 mi SE 10.4 mph - 0.08 in Rain Light Freezing Rain
9:26 AM 33.8 °F 26.4 °F 33.8 °F 100% 30.11 in 4.0 mi SE 9.2 mph - 0.09 in Rain Rain
9:31 AM 33.8 °F 26.4 °F 33.8 °F 100% 30.11 in 4.0 mi SE 9.2 mph - 0.09 in Rain Light Freezing Rain
9:48 AM 33.8 °F 27.0 °F 33.8 °F 100% 30.11 in 3.0 mi ESE 8.1 mph - 0.11 in Rain Light Freezing Rain
9:59 AM 34.0 °F 27.2 °F 33.1 °F 96% 30.15 in 3.0 mi ESE 8.1 mph - 0.12 in Rain Light Rain
10:20 AM 35.6 °F 30.7 °F 33.8 °F 93% 30.16 in 1.8 mi SSE 5.8 mph - 0.04 in Snow Light Snow
10:25 AM 35.6 °F 31.7 °F 33.8 °F 93% 30.15 in 2.0 mi SE 4.6 mph - 0.05 in Snow Light Snow
10:34 AM 35.6 °F 29.9 °F 33.8 °F 93% 30.13 in 3.0 mi ESE 6.9 mph - 0.06 in Snow Light Snow
10:47 AM 35.6 °F 29.9 °F 33.8 °F 93% 30.12 in 3.0 mi ESE 6.9 mph - 0.07 in Rain Light Freezing Rain
10:57 AM 35.1 °F 27.9 °F 33.1 °F 92% 30.14 in 3.0 mi ESE 9.2 mph - 0.07 in Rain Light Freezing Rain
11:02 AM 35.6 °F 28.6 °F 33.8 °F 93% 30.11 in 3.0 mi ESE 9.2 mph - 0.00 in Rain Light Freezing Rain
11:13 AM 35.6 °F 28.6 °F 33.8 °F 93% 30.10 in 3.0 mi ESE 9.2 mph - 0.02 in   Overcast
11:18 AM 35.6 °F 28.6 °F 33.8 °F 93% 30.09 in 3.0 mi ESE 9.2 mph - 0.02 in Rain Light Freezing Rain
11:41 AM 35.6 °F 32.8 °F 33.8 °F 93% 30.10 in 1.8 mi Variable 3.5 mph - 0.08 in Snow Light Snow
11:57 AM 35.6 °F 31.7 °F 33.8 °F 93% 30.10 in 1.2 mi SSE 4.6 mph - 0.12 in Rain Light Freezing Rain
12:49 PM 35.6 °F 29.2 °F 33.8 °F 93% 30.05 in 2.0 mi SE 8.1 mph - 0.09 in Rain Light Freezing Rain
12:57 PM 36.0 °F 29.0 °F 34.0 °F 93% 30.06 in 2.5 mi ESE 9.2 mph - 0.09 in   Overcast
1:00 PM 35.6 °F 29.2 °F 33.8 °F 93% 30.04 in 3.0 mi ESE 8.1 mph - 0.00 in Rain Light Freezing Rain
1:22 PM 35.6 °F 29.9 °F 33.8 °F 93% 30.02 in 3.0 mi ESE 6.9 mph - 0.01 in Rain Light Freezing Rain
1:29 PM 35.6 °F 29.2 °F 33.8 °F 93% 30.02 in 3.0 mi SE 8.1 mph - 0.01 in Rain Light Rain
1:34 PM 35.6 °F 29.2 °F 35.6 °F 100% 30.02 in 3.0 mi ESE 8.1 mph - 0.01 in Rain Light Freezing Rain
1:57 PM 36.0 °F 30.3 °F 35.1 °F 97% 30.04 in 4.0 mi SE 6.9 mph - 0.02 in Rain Light Freezing Rain
2:02 PM 35.6 °F 29.2 °F 35.6 °F 100% 30.01 in 5.0 mi ESE 8.1 mph - 0.00 in Rain Light Rain
2:07 PM 35.6 °F 29.9 °F 35.6 °F 100% 30.01 in 5.0 mi ESE 6.9 mph - 0.00 in Rain Light Freezing Rain
2:35 PM 35.6 °F 28.6 °F 35.6 °F 100% 29.99 in 6.0 mi ESE 9.2 mph - 0.00 in Rain Light Rain
3:08 PM 35.6 °F 28.6 °F 35.6 °F 100% 29.98 in 10.0 mi ESE 9.2 mph - 0.00 in Rain Light Rain
3:22 PM 35.6 °F 29.2 °F 35.6 °F 100% 29.98 in 10.0 mi ESE 8.1 mph - 0.00 in Rain Light Freezing Rain
3:40 PM 35.6 °F 29.2 °F 35.6 °F 100% 29.98 in 10.0 mi ESE 8.1 mph - 0.00 in   Overcast
3:45 PM 35.6 °F 29.9 °F 35.6 °F 100% 29.99 in 10.0 mi SE 6.9 mph - 0.00 in Rain Light Freezing Rain
3:57 PM 35.6 °F 30.7 °F 35.6 °F 100% 29.99 in 10.0 mi ESE 5.8 mph - 0.00 in Rain Light Rain
3:59 PM 36.0 °F 30.3 °F 35.1 °F 97% 30.01 in 10.0 mi ESE 6.9 mph - 0.00 in   Overcast
4:13 PM 35.6 °F 30.7 °F 35.6 °F 100% 29.98 in 8.0 mi ESE 5.8 mph - N/A   Overcast
4:33 PM 35.6 °F 31.7 °F 35.6 °F 100% 29.98 in 5.0 mi ESE 4.6 mph - N/A   Overcast
4:57 PM 36.0 °F 32.1 °F 35.1 °F 97% 30.01 in 2.5 mi ESE 4.6 mph - N/A   Overcast
5:24 PM 35.6 °F 32.8 °F 35.6 °F 100% 29.99 in 2.5 mi ESE 3.5 mph - N/A   Overcast
5:33 PM 35.6 °F 31.7 °F 35.6 °F 100% 29.99 in 3.0 mi ESE 4.6 mph - N/A   Overcast
6:43 PM 37.4 °F - 35.6 °F 93% 30.00 in 5.0 mi Calm Calm - N/A   Overcast
6:57 PM 37.0 °F - 36.0 °F 96% 30.01 in 4.0 mi Calm Calm - N/A   Overcast
7:51 PM 37.4 °F - 35.6 °F 93% 30.00 in 4.0 mi Calm Calm - N/A   Overcast
7:57 PM 37.0 °F - 36.0 °F 96% 30.03 in 4.0 mi Calm Calm - N/A   Overcast
8:29 PM 37.4 °F - 35.6 °F 93% 30.01 in 1.5 mi Calm Calm - N/A   Overcast
9:05 PM 37.4 °F - 35.6 °F 93% 30.01 in 0.5 mi Calm Calm - N/A Fog Fog
9:57 PM 37.0 °F - 36.0 °F 96% 30.05 in 0.2 mi Calm Calm - N/A Fog Fog
10:28 PM 37.4 °F - 35.6 °F 93% 30.03 in 0.5 mi Calm Calm - N/A Fog Fog
10:57 PM 37.0 °F 34.5 °F 36.0 °F 96% 30.06 in 0.5 mi West 3.5 mph - N/A Fog Fog
11:24 PM 37.4 °F 32.8 °F 35.6 °F 93% 30.04 in 0.8 mi West 5.8 mph - N/A   Overcast
11:42 PM 37.4 °F 32.1 °F 35.6 °F 93% 30.05 in 1.2 mi West 6.9 mph - N/A   Overcast
11:57 PM 37.0 °F 31.6 °F 36.0 °F 96% 30.08 in 1.2 mi West 6.9 mph - N/A   Overcast